Satori — WDC4937 — position and weather

sailwx.info

Track history (hours):
 
Tides and Currents Weather Stations Pressure Air Temp Water Temp Dewpoint Dewpoint Depression Visibility Wind Speed Wind Dir Waves Ship Positions

Satori

Owner: Wozny, Geoffrey A, Stamford, CT. More information available from US FCC via Universal Licensing System and Coast Guard Vessel Documentation Center.

Last reported at 2015-May-17 17:17 UTC. Time now 2015-May-22 23:42 UTC.
Position N 41°01' W 073°32'.

Length 13 m.

Type: Sailing vessel. MMSI: 367033160.

Date/timePositionNaut miles runAvg speedWind from/ knotsBaromVisibWave heightAir tempDewpointWater temp
2015-May-17 17:17N 41°01' W 073°32'5 6.5
2015-May-17 16:33N 40°57' W 073°27'3 2.1
2015-May-17 15:12N 40°55' W 073°26'0 0.0
2015-May-17 14:29N 40°55' W 073°26'0 0.0
2015-May-17 06:33N 40°55' W 073°26'0 0.0
2015-May-16 23:17N 40°55' W 073°26'2 0.9
2015-May-16 20:30N 40°57' W 073°26'6 5.7
2015-May-16 19:29N 41°01' W 073°32'  
2015-May-10 21:11N 41°01' W 073°32'2 1.1
2015-May-10 19:31N 40°59' W 073°31'3 0.7
2015-May-10 15:30N 41°02' W 073°32'0 0.0
2015-May-10 14:33N 41°02' W 073°32'0 0.0
2015-May-10 13:17N 41°02' W 073°32'0 0.0
2015-May-10 09:11N 41°02' W 073°32'0 0.0
2015-May-10 08:08N 41°02' W 073°32'0 0.0
2015-May-10 06:29N 41°02' W 073°32'0 0.0
2015-May-10 05:29N 41°02' W 073°32'0 0.0
2015-May-09 20:31N 41°02' W 073°32'0 0.0
2015-May-09 17:17N 41°02' W 073°32'0 0.0
2015-May-09 08:05N 41°02' W 073°32'0 0.0
2015-May-09 07:28N 41°02' W 073°32'0 0.0
2015-May-09 06:31N 41°02' W 073°32'0 0.0
2015-May-09 05:33N 41°02' W 073°32'0 0.0
2015-May-09 04:30N 41°02' W 073°32'0 0.0
2015-May-09 03:29N 41°02' W 073°32'0 0.0
2015-May-09 02:31N 41°02' W 073°32'  
Track history (hours):
 
Tides and Currents Weather Stations Pressure Air Temp Water Temp Dewpoint Dewpoint Depression Visibility Wind Speed Wind Dir Waves Ship Positions

Satori

Owner: Wozny, Geoffrey A, Stamford, CT. More information available from US FCC via Universal Licensing System and Coast Guard Vessel Documentation Center.

Last reported at 2015-May-17 17:17 UTC. Time now 2015-May-22 23:42 UTC.
Position N 41°01' W 073°32'.

Length 13 m.

Type: Sailing vessel. MMSI: 367033160.

Date/timePositionNaut miles runAvg speedWind from/ knotsBaromVisibWave heightAir tempDewpointWater temp
2015-May-17 17:17N 41°01' W 073°32'5 6.5
2015-May-17 16:33N 40°57' W 073°27'3 2.1
2015-May-17 15:12N 40°55' W 073°26'0 0.0
2015-May-17 14:29N 40°55' W 073°26'0 0.0
2015-May-17 06:33N 40°55' W 073°26'0 0.0
2015-May-16 23:17N 40°55' W 073°26'2 0.9
2015-May-16 20:30N 40°57' W 073°26'6 5.7
2015-May-16 19:29N 41°01' W 073°32'  
2015-May-10 21:11N 41°01' W 073°32'2 1.1
2015-May-10 19:31N 40°59' W 073°31'3 0.7
2015-May-10 15:30N 41°02' W 073°32'0 0.0
2015-May-10 14:33N 41°02' W 073°32'0 0.0
2015-May-10 13:17N 41°02' W 073°32'0 0.0
2015-May-10 09:11N 41°02' W 073°32'0 0.0
2015-May-10 08:08N 41°02' W 073°32'0 0.0
2015-May-10 06:29N 41°02' W 073°32'0 0.0
2015-May-10 05:29N 41°02' W 073°32'0 0.0
2015-May-09 20:31N 41°02' W 073°32'0 0.0
2015-May-09 17:17N 41°02' W 073°32'0 0.0
2015-May-09 08:05N 41°02' W 073°32'0 0.0
2015-May-09 07:28N 41°02' W 073°32'0 0.0
2015-May-09 06:31N 41°02' W 073°32'0 0.0
2015-May-09 05:33N 41°02' W 073°32'0 0.0
2015-May-09 04:30N 41°02' W 073°32'0 0.0
2015-May-09 03:29N 41°02' W 073°32'0 0.0
2015-May-09 02:31N 41°02' W 073°32'  

Dump ship's entire track history